createdAt,value
2017-06-14T00:00:12.849Z,935.51
2017-06-14T00:00:41.076Z,935.52
2017-06-14T00:01:09.464Z,935.52
2017-06-14T00:01:37.583Z,935.53
2017-06-14T00:02:05.967Z,935.54
2017-06-14T00:02:34.241Z,935.52
2017-06-14T00:03:02.811Z,935.55
2017-06-14T00:03:30.945Z,935.55
2017-06-14T00:03:59.140Z,935.52
2017-06-14T00:04:27.389Z,935.55
2017-06-14T00:04:55.435Z,935.5
2017-06-14T00:05:23.715Z,935.52
2017-06-14T00:05:51.946Z,935.48
2017-06-14T00:06:20.173Z,935.5
2017-06-14T00:06:48.371Z,935.49
2017-06-14T00:07:16.632Z,935.47
2017-06-14T00:07:44.832Z,935.48
2017-06-14T00:08:13.025Z,935.51
2017-06-14T00:08:41.240Z,935.46
2017-06-14T00:09:09.394Z,935.46
2017-06-14T00:09:37.548Z,935.45
2017-06-14T00:10:05.843Z,935.47
2017-06-14T00:10:34.105Z,935.47
2017-06-14T00:11:02.403Z,935.46
2017-06-14T00:11:30.549Z,935.43
2017-06-14T00:11:58.816Z,935.48
2017-06-14T00:12:27.201Z,935.45
2017-06-14T00:12:55.488Z,935.47
2017-06-14T00:13:23.626Z,935.46
2017-06-14T00:13:51.867Z,935.5
2017-06-14T00:14:20.067Z,935.49
2017-06-14T00:14:48.321Z,935.55
2017-06-14T00:15:16.484Z,935.54
2017-06-14T00:15:44.834Z,935.57
2017-06-14T00:16:12.988Z,935.6
2017-06-14T00:16:41.308Z,935.6
2017-06-14T00:17:09.564Z,935.62
2017-06-14T00:17:37.817Z,935.65
2017-06-14T00:18:06.033Z,935.63
2017-06-14T00:18:34.283Z,935.62
2017-06-14T00:19:02.431Z,935.61
2017-06-14T00:19:30.580Z,935.58
2017-06-14T00:19:58.874Z,935.57
2017-06-14T00:20:27.129Z,935.56
2017-06-14T00:20:55.489Z,935.55
2017-06-14T00:21:23.475Z,935.53
2017-06-14T00:21:51.675Z,935.52
2017-06-14T00:22:19.902Z,935.52
2017-06-14T00:22:48.166Z,935.47
2017-06-14T00:23:16.283Z,935.46
2017-06-14T00:23:44.541Z,935.48
2017-06-14T00:24:12.651Z,935.43
2017-06-14T00:24:40.841Z,935.43
2017-06-14T00:25:08.978Z,935.4
2017-06-14T00:25:37.468Z,935.43
2017-06-14T00:26:05.669Z,935.39
2017-06-14T00:26:33.875Z,935.37
2017-06-14T00:27:02.167Z,935.36
2017-06-14T00:27:30.313Z,935.39
2017-06-14T00:27:58.554Z,935.37
2017-06-14T00:28:26.688Z,935.34
2017-06-14T00:28:55.044Z,935.32
2017-06-14T00:29:23.080Z,935.28
2017-06-14T00:29:51.303Z,935.24
2017-06-14T00:30:19.485Z,935.22
2017-06-14T00:30:47.749Z,935.2
2017-06-14T00:31:16.027Z,935.14
2017-06-14T00:31:44.183Z,935.14
2017-06-14T00:32:12.319Z,935.11
2017-06-14T00:32:40.551Z,935.13
2017-06-14T00:33:08.543Z,935.13
2017-06-14T00:33:36.814Z,935.12
2017-06-14T00:34:04.922Z,935.15
2017-06-14T00:34:33.090Z,935.14
2017-06-14T00:35:01.426Z,935.14
2017-06-14T00:35:29.653Z,935.15
2017-06-14T00:35:58.122Z,935.14
2017-06-14T00:36:26.344Z,935.17
2017-06-14T00:36:54.537Z,935.15
2017-06-14T00:37:22.799Z,935.13
2017-06-14T00:37:50.841Z,935.13
2017-06-14T00:38:19.045Z,935.13
2017-06-14T00:38:47.232Z,935.13
2017-06-14T00:39:15.402Z,935.11
2017-06-14T00:39:43.458Z,935.15
2017-06-14T00:40:11.740Z,935.14
2017-06-14T00:40:39.981Z,935.12
2017-06-14T00:41:08.319Z,935.1
2017-06-14T00:41:36.445Z,935.12
2017-06-14T00:42:04.703Z,935.11
2017-06-14T00:42:32.925Z,935.07
2017-06-14T00:43:01.091Z,935.1
2017-06-14T00:43:29.231Z,935.04
2017-06-14T00:43:57.391Z,935.06
2017-06-14T00:44:25.519Z,935.04
2017-06-14T00:44:53.778Z,935.03
2017-06-14T00:45:21.987Z,934.98
2017-06-14T00:45:50.046Z,934.99
2017-06-14T00:46:18.582Z,935.01
2017-06-14T00:46:46.612Z,934.96
2017-06-14T00:47:14.919Z,935
2017-06-14T00:47:43.067Z,934.99
2017-06-14T00:48:11.263Z,934.93
2017-06-14T00:48:39.463Z,934.92
2017-06-14T00:49:07.756Z,934.92
2017-06-14T00:49:36.035Z,934.89
2017-06-14T00:50:04.513Z,934.88
2017-06-14T00:50:32.673Z,934.81
2017-06-14T00:51:01.035Z,934.79
2017-06-14T00:51:29.322Z,934.79
2017-06-14T00:51:57.473Z,934.75
2017-06-14T00:52:25.698Z,934.66
2017-06-14T00:52:54.058Z,934.64
2017-06-14T00:53:22.337Z,934.59
2017-06-14T00:53:50.603Z,934.5
2017-06-14T00:54:18.923Z,934.48
2017-06-14T00:54:47.085Z,934.36
2017-06-14T00:55:15.256Z,934.25
2017-06-14T00:55:43.564Z,934.16
2017-06-14T00:56:11.989Z,934.01
2017-06-14T00:56:40.172Z,933.91
2017-06-14T00:57:08.164Z,933.84
2017-06-14T00:57:36.398Z,933.76
2017-06-14T00:58:04.605Z,933.68
2017-06-14T00:58:32.879Z,933.68
2017-06-14T00:59:01.046Z,933.7
2017-06-14T00:59:29.108Z,933.7
2017-06-14T00:59:57.215Z,933.72
2017-06-14T01:00:25.425Z,933.74
2017-06-14T01:00:53.554Z,933.75
2017-06-14T01:01:21.830Z,933.74
2017-06-14T01:01:49.997Z,933.82
2017-06-14T01:02:18.186Z,933.82
2017-06-14T01:02:46.873Z,933.8
2017-06-14T01:03:14.941Z,933.83
2017-06-14T01:03:43.143Z,933.85
2017-06-14T01:04:11.139Z,933.82
2017-06-14T01:04:39.317Z,933.82
2017-06-14T01:05:07.468Z,933.84
2017-06-14T01:05:35.629Z,933.91
2017-06-14T01:06:03.764Z,933.89
2017-06-14T01:06:32.073Z,933.93
2017-06-14T01:07:00.394Z,934.01
2017-06-14T01:07:28.464Z,934.04
2017-06-14T01:07:56.721Z,934.12
2017-06-14T01:08:25.005Z,934.15
2017-06-14T01:08:53.135Z,934.22
2017-06-14T01:09:21.296Z,934.35
2017-06-14T01:09:49.546Z,934.39
2017-06-14T01:10:17.888Z,934.41
2017-06-14T01:10:46.087Z,934.47
2017-06-14T01:11:14.278Z,934.51
2017-06-14T01:11:42.581Z,934.53
2017-06-14T01:12:10.783Z,934.53
2017-06-14T01:12:39.035Z,934.57
2017-06-14T01:13:07.358Z,934.56
2017-06-14T01:13:35.544Z,934.56
2017-06-14T01:14:03.749Z,934.57
2017-06-14T01:14:31.910Z,934.54
2017-06-14T01:15:00.067Z,934.48
2017-06-14T01:15:28.281Z,934.4
2017-06-14T01:15:56.404Z,934.3
2017-06-14T01:16:24.690Z,934.19
2017-06-14T01:16:52.716Z,934.12
2017-06-14T01:17:21.046Z,934.07
2017-06-14T01:17:49.128Z,933.99
2017-06-14T01:18:17.290Z,933.97
2017-06-14T01:18:45.688Z,933.92
2017-06-14T01:19:13.946Z,933.95
2017-06-14T01:19:42.024Z,933.94
2017-06-14T01:20:10.316Z,933.93
2017-06-14T01:20:38.481Z,933.93
2017-06-14T01:21:07.902Z,933.97
2017-06-14T01:21:36.144Z,934.04
2017-06-14T01:22:04.373Z,934.07
2017-06-14T01:22:32.628Z,934.09
2017-06-14T01:23:00.535Z,934.14
2017-06-14T01:23:28.838Z,934.19
2017-06-14T01:23:57.010Z,934.29
2017-06-14T01:24:25.219Z,934.33
2017-06-14T01:24:53.507Z,934.4
2017-06-14T01:25:21.642Z,934.47
2017-06-14T01:25:49.895Z,934.54
2017-06-14T01:26:18.097Z,934.55
2017-06-14T01:26:46.447Z,934.61
2017-06-14T01:27:14.714Z,934.65
2017-06-14T01:27:42.802Z,934.67
2017-06-14T01:28:11.007Z,934.74
2017-06-14T01:28:39.192Z,934.75
2017-06-14T01:29:07.293Z,934.77
2017-06-14T01:29:35.600Z,934.82
2017-06-14T01:30:03.787Z,934.83
2017-06-14T01:30:32.113Z,934.84
2017-06-14T01:31:00.376Z,934.87
2017-06-14T01:31:28.565Z,934.91
2017-06-14T01:31:56.970Z,934.93
2017-06-14T01:32:25.258Z,934.99
2017-06-14T01:32:53.550Z,935.04
2017-06-14T01:33:21.797Z,935.07
2017-06-14T01:33:49.789Z,935.11
2017-06-14T01:34:18.031Z,935.21
2017-06-14T01:34:46.226Z,935.23
2017-06-14T01:35:14.486Z,935.32
2017-06-14T01:35:42.775Z,935.38
2017-06-14T01:36:11.022Z,935.4
2017-06-14T01:36:39.137Z,935.44
2017-06-14T01:37:07.369Z,935.45
2017-06-14T01:37:35.599Z,935.42
2017-06-14T01:38:04.066Z,935.45
2017-06-14T01:38:32.243Z,935.52
2017-06-14T01:39:00.360Z,935.51
2017-06-14T01:39:28.597Z,935.54
2017-06-14T01:39:56.673Z,935.5
2017-06-14T01:40:24.925Z,935.56
2017-06-14T01:40:53.455Z,935.59
2017-06-14T01:41:21.743Z,935.59
2017-06-14T01:41:50.123Z,935.62
2017-06-14T01:42:18.294Z,935.59
2017-06-14T01:42:46.443Z,935.54
2017-06-14T01:43:14.696Z,935.53
2017-06-14T01:43:42.981Z,935.58
2017-06-14T01:44:11.138Z,935.57
2017-06-14T01:44:39.276Z,935.55
2017-06-14T01:45:07.480Z,935.51
2017-06-14T01:45:35.781Z,935.47
2017-06-14T01:46:04.101Z,935.47
2017-06-14T01:46:32.272Z,935.41
2017-06-14T01:47:00.700Z,935.41
2017-06-14T01:47:28.785Z,935.36
2017-06-14T01:47:56.891Z,935.35
2017-06-14T01:48:25.165Z,935.33
2017-06-14T01:48:53.267Z,935.33
2017-06-14T01:49:21.551Z,935.28
2017-06-14T01:49:49.653Z,935.32
2017-06-14T01:50:17.872Z,935.31
2017-06-14T01:50:46.108Z,935.37
2017-06-14T01:51:14.417Z,935.39
2017-06-14T01:51:42.884Z,935.34
2017-06-14T01:52:11.346Z,935.35
2017-06-14T01:52:39.596Z,935.3
2017-06-14T01:53:07.761Z,935.33
2017-06-14T01:53:35.973Z,935.36
2017-06-14T01:54:04.110Z,935.33
2017-06-14T01:54:32.420Z,935.33
2017-06-14T01:55:00.975Z,935.33
2017-06-14T01:55:29.045Z,935.28
2017-06-14T01:55:57.247Z,935.24
2017-06-14T01:56:25.578Z,935.22
2017-06-14T01:56:53.639Z,935.19
2017-06-14T01:57:21.954Z,935.18
2017-06-14T01:57:50.274Z,935.15
2017-06-14T01:58:18.564Z,935.11
2017-06-14T01:58:46.754Z,935.11
2017-06-14T01:59:15.039Z,935.1
2017-06-14T01:59:43.307Z,935.07
2017-06-14T02:00:11.593Z,935.12
2017-06-14T02:00:39.774Z,935.14
2017-06-14T02:01:08.012Z,935.06
2017-06-14T02:01:36.233Z,935.08
2017-06-14T02:02:04.367Z,935.09
2017-06-14T02:02:32.663Z,935.09
2017-06-14T02:03:00.853Z,935.11
2017-06-14T02:03:29.023Z,935.1
2017-06-14T02:03:57.047Z,935.09
2017-06-14T02:04:25.334Z,935.13
2017-06-14T02:04:53.579Z,935.12
2017-06-14T02:05:21.680Z,935.1
2017-06-14T02:05:49.842Z,935.09
2017-06-14T02:06:18.016Z,935.04
2017-06-14T02:06:46.316Z,935.04
2017-06-14T02:07:14.749Z,935
2017-06-14T02:07:42.983Z,935.01
2017-06-14T02:08:11.235Z,934.96
2017-06-14T02:08:39.415Z,934.97
2017-06-14T02:09:07.589Z,934.9
2017-06-14T02:09:35.875Z,934.89
2017-06-14T02:10:03.983Z,934.91
2017-06-14T02:10:32.209Z,934.87
2017-06-14T02:11:00.482Z,934.87
2017-06-14T02:11:28.748Z,934.86
2017-06-14T02:11:56.783Z,934.84
2017-06-14T02:12:25.050Z,934.84
2017-06-14T02:12:53.301Z,934.8
2017-06-14T02:13:21.609Z,934.8
2017-06-14T02:13:49.839Z,934.77
2017-06-14T02:14:18.037Z,934.79
2017-06-14T02:14:46.294Z,934.75
2017-06-14T02:15:14.472Z,934.7
2017-06-14T02:15:42.633Z,934.67
2017-06-14T02:16:10.686Z,934.6
2017-06-14T02:16:38.928Z,934.52
2017-06-14T02:17:07.157Z,934.46
2017-06-14T02:17:35.573Z,934.43
2017-06-14T02:18:03.822Z,934.28
2017-06-14T02:18:31.886Z,934.18
2017-06-14T02:19:00.940Z,934.11
2017-06-14T02:19:29.026Z,934.18
2017-06-14T02:19:57.226Z,934.11
2017-06-14T02:20:25.257Z,934.13
2017-06-14T02:20:53.359Z,934.14
2017-06-14T02:21:21.603Z,934.29
2017-06-14T02:21:49.776Z,934.35
2017-06-14T02:22:18.067Z,934.43
2017-06-14T02:22:46.501Z,934.51
2017-06-14T02:23:14.726Z,934.61
2017-06-14T02:23:42.858Z,934.68
2017-06-14T02:24:11.045Z,934.77
2017-06-14T02:24:39.085Z,934.85
2017-06-14T02:25:07.249Z,934.96
2017-06-14T02:25:35.512Z,935.03
2017-06-14T02:26:03.624Z,935.12
2017-06-14T02:26:31.865Z,935.21
2017-06-14T02:27:00.037Z,935.3
2017-06-14T02:27:28.218Z,935.32
2017-06-14T02:27:56.582Z,935.41
2017-06-14T02:28:24.821Z,935.39
2017-06-14T02:28:53.053Z,935.41
2017-06-14T02:29:21.165Z,935.44
2017-06-14T02:29:49.327Z,935.48
2017-06-14T02:30:17.443Z,935.48
2017-06-14T02:30:45.727Z,935.44
2017-06-14T02:31:13.904Z,935.42
2017-06-14T02:31:42.142Z,935.4
2017-06-14T02:32:10.256Z,935.39
2017-06-14T02:32:38.691Z,935.38
2017-06-14T02:33:06.773Z,935.36
2017-06-14T02:33:34.990Z,935.38
2017-06-14T02:34:03.206Z,935.36
2017-06-14T02:34:31.114Z,935.35
2017-06-14T02:34:59.163Z,935.29
2017-06-14T02:35:27.248Z,935.35
2017-06-14T02:35:55.324Z,935.38
2017-06-14T02:36:23.359Z,935.36
2017-06-14T02:36:51.650Z,935.39
2017-06-14T02:37:19.903Z,935.33
2017-06-14T02:37:48.168Z,935.36
2017-06-14T02:38:16.462Z,935.31
2017-06-14T02:38:44.468Z,935.3
2017-06-14T02:39:12.753Z,935.25
2017-06-14T02:39:40.933Z,935.21
2017-06-14T02:40:09.060Z,935.15
2017-06-14T02:40:37.250Z,935.16
2017-06-14T02:41:05.480Z,935.12
2017-06-14T02:41:33.692Z,935.08
2017-06-14T02:42:01.764Z,935.08
2017-06-14T02:42:29.836Z,935.11
2017-06-14T02:42:58.259Z,935.08
2017-06-14T02:43:26.321Z,935.08
2017-06-14T02:43:54.458Z,935.12
2017-06-14T02:44:22.590Z,935.13
2017-06-14T02:44:50.620Z,935.19
2017-06-14T02:45:18.810Z,935.22
2017-06-14T02:45:47.079Z,935.25
2017-06-14T02:46:15.349Z,935.25
2017-06-14T02:46:43.443Z,935.26
2017-06-14T02:47:11.566Z,935.24
2017-06-14T02:47:39.800Z,935.19
2017-06-14T02:48:08.100Z,935.26
2017-06-14T02:48:36.301Z,935.24
2017-06-14T02:49:04.312Z,935.2
2017-06-14T02:49:32.568Z,935.13
2017-06-14T02:50:00.827Z,935.08
2017-06-14T02:50:29.050Z,935.03
2017-06-14T02:50:57.263Z,934.95
2017-06-14T02:51:25.431Z,934.92
2017-06-14T02:51:53.450Z,934.85
2017-06-14T02:52:21.698Z,934.78
2017-06-14T02:52:49.694Z,934.69
2017-06-14T02:53:17.794Z,934.63
2017-06-14T02:53:46.053Z,934.53
2017-06-14T02:54:14.298Z,934.46
2017-06-14T02:54:42.427Z,934.31
2017-06-14T02:55:10.593Z,934.24
2017-06-14T02:55:38.560Z,934.05
2017-06-14T02:56:06.674Z,934.01
2017-06-14T02:56:34.851Z,933.96
2017-06-14T02:57:03.018Z,933.91
2017-06-14T02:57:31.259Z,933.94
2017-06-14T02:57:59.477Z,933.93
2017-06-14T02:58:27.704Z,933.95
2017-06-14T02:58:55.843Z,933.99
2017-06-14T02:59:24.043Z,934.07
2017-06-14T02:59:52.106Z,934.13
2017-06-14T03:00:20.390Z,934.18
2017-06-14T03:00:48.483Z,934.23
2017-06-14T03:01:16.788Z,934.3
2017-06-14T03:01:44.971Z,934.37
2017-06-14T03:02:13.137Z,934.42
2017-06-14T03:02:41.311Z,934.45
2017-06-14T03:03:09.636Z,934.51
2017-06-14T03:03:37.898Z,934.56
2017-06-14T03:04:06.171Z,934.61
2017-06-14T03:04:34.418Z,934.66
2017-06-14T03:05:02.685Z,934.76
2017-06-14T03:05:30.724Z,934.8
2017-06-14T03:05:58.939Z,934.81
2017-06-14T03:06:27.094Z,934.88
2017-06-14T03:06:55.225Z,934.87
2017-06-14T03:07:23.487Z,934.9
2017-06-14T03:07:51.571Z,934.85
2017-06-14T03:08:19.872Z,934.82
2017-06-14T03:08:48.036Z,934.78
2017-06-14T03:09:16.216Z,934.76
2017-06-14T03:09:44.462Z,934.75
2017-06-14T03:10:12.631Z,934.72
2017-06-14T03:10:40.849Z,934.74
2017-06-14T03:11:09.114Z,934.81
2017-06-14T03:11:37.394Z,934.79
2017-06-14T03:12:05.394Z,934.89
2017-06-14T03:12:33.443Z,934.92
2017-06-14T03:13:01.696Z,934.98
2017-06-14T03:13:30.032Z,935.01
2017-06-14T03:13:58.144Z,935.11
2017-06-14T03:14:26.315Z,935.1
2017-06-14T03:14:54.486Z,935.18
2017-06-14T03:15:22.716Z,935.22
2017-06-14T03:15:50.889Z,935.23
2017-06-14T03:16:19.028Z,935.32
2017-06-14T03:16:47.211Z,935.35
2017-06-14T03:17:15.286Z,935.38
2017-06-14T03:17:43.371Z,935.4
2017-06-14T03:18:11.407Z,935.45
2017-06-14T03:18:39.525Z,935.46
2017-06-14T03:19:07.810Z,935.42
2017-06-14T03:19:35.918Z,935.49
2017-06-14T03:20:04.072Z,935.49
2017-06-14T03:20:32.032Z,935.53
2017-06-14T03:20:59.971Z,935.58
2017-06-14T03:21:28.077Z,935.61
2017-06-14T03:21:56.305Z,935.67
2017-06-14T03:22:24.486Z,935.73
2017-06-14T03:22:52.967Z,935.75
2017-06-14T03:23:21.245Z,935.81
2017-06-14T03:23:49.466Z,935.8
2017-06-14T03:24:17.685Z,935.8
2017-06-14T03:24:45.870Z,935.79
2017-06-14T03:25:14.149Z,935.78
2017-06-14T03:25:42.278Z,935.83
2017-06-14T03:26:10.542Z,935.82
2017-06-14T03:26:38.763Z,935.84
2017-06-14T03:27:06.979Z,935.84
2017-06-14T03:27:35.228Z,935.84
2017-06-14T03:28:03.437Z,935.79
2017-06-14T03:28:31.764Z,935.79
2017-06-14T03:28:59.966Z,935.76
2017-06-14T03:29:28.233Z,935.7
2017-06-14T03:29:56.497Z,935.68
2017-06-14T03:30:24.638Z,935.69
2017-06-14T03:30:52.803Z,935.68
2017-06-14T03:31:20.953Z,935.68
2017-06-14T03:31:49.155Z,935.68
2017-06-14T03:32:17.523Z,935.67
2017-06-14T03:32:45.933Z,935.66
2017-06-14T03:33:14.105Z,935.66
2017-06-14T03:33:42.629Z,935.63
2017-06-14T03:34:10.968Z,935.66
2017-06-14T03:34:39.341Z,935.66
2017-06-14T03:35:07.620Z,935.68
2017-06-14T03:35:35.771Z,935.69
2017-06-14T03:36:03.836Z,935.7
2017-06-14T03:36:31.915Z,935.73
2017-06-14T03:36:59.941Z,935.73
2017-06-14T03:37:28.145Z,935.76
2017-06-14T03:37:56.259Z,935.78
2017-06-14T03:38:24.465Z,935.79
2017-06-14T03:38:52.802Z,935.81
2017-06-14T03:39:20.814Z,935.83
2017-06-14T03:39:48.983Z,935.87
2017-06-14T03:40:17.161Z,935.86
2017-06-14T03:40:45.415Z,935.89
2017-06-14T03:41:13.592Z,935.91
2017-06-14T03:41:41.735Z,935.94
2017-06-14T03:42:09.932Z,935.96
2017-06-14T03:42:38.187Z,935.96
2017-06-14T03:43:06.434Z,935.98
2017-06-14T03:43:34.811Z,935.92
2017-06-14T03:44:02.956Z,935.95
2017-06-14T03:44:31.098Z,935.91
2017-06-14T03:44:59.306Z,935.88
2017-06-14T03:45:27.497Z,935.88
2017-06-14T03:45:55.469Z,935.88
2017-06-14T03:46:23.634Z,935.87
2017-06-14T03:46:51.814Z,935.86
2017-06-14T03:47:19.931Z,935.85
2017-06-14T03:47:48.140Z,935.85
2017-06-14T03:48:16.076Z,935.78
2017-06-14T03:48:44.453Z,935.76
2017-06-14T03:49:12.628Z,935.7
2017-06-14T03:49:40.847Z,935.66
2017-06-14T03:50:08.868Z,935.64
2017-06-14T03:50:37.005Z,935.63
2017-06-14T03:51:05.224Z,935.61
2017-06-14T03:51:33.351Z,935.59
2017-06-14T03:52:01.587Z,935.57
2017-06-14T03:52:29.853Z,935.52
2017-06-14T03:52:58.120Z,935.44
2017-06-14T03:53:26.379Z,935.38
2017-06-14T03:53:54.650Z,935.31
2017-06-14T03:54:22.600Z,935.23
2017-06-14T03:54:50.605Z,935.22
2017-06-14T03:55:19.074Z,935.21
2017-06-14T03:55:47.322Z,935.23
2017-06-14T03:56:15.590Z,935.19
2017-06-14T03:56:43.882Z,935.2
2017-06-14T03:57:12.095Z,935.24
2017-06-14T03:57:40.255Z,935.26
2017-06-14T03:58:08.422Z,935.2
2017-06-14T03:58:36.563Z,935.2
2017-06-14T03:59:04.902Z,935.14
2017-06-14T03:59:33.103Z,935.18
2017-06-14T04:00:01.387Z,935.14
2017-06-14T04:00:29.730Z,935.12
2017-06-14T04:00:57.862Z,935.09
2017-06-14T04:01:26.122Z,935.07
2017-06-14T04:01:54.369Z,935.04
2017-06-14T04:02:22.535Z,935.05
2017-06-14T04:02:50.863Z,935.03
2017-06-14T04:03:19.000Z,935.02
2017-06-14T04:03:47.336Z,934.97
2017-06-14T04:04:15.490Z,935.01
2017-06-14T04:04:43.699Z,935.03
2017-06-14T04:05:11.912Z,935.02
2017-06-14T04:05:40.019Z,935.05
2017-06-14T04:06:08.280Z,935.07
2017-06-14T04:06:36.541Z,935.14
2017-06-14T04:07:04.695Z,935.2
2017-06-14T04:07:32.647Z,935.23
2017-06-14T04:08:00.907Z,935.24
2017-06-14T04:08:29.152Z,935.31
2017-06-14T04:08:57.337Z,935.31
2017-06-14T04:09:25.580Z,935.3
2017-06-14T04:09:53.859Z,935.36
2017-06-14T04:10:21.991Z,935.38
2017-06-14T04:10:50.232Z,935.37
2017-06-14T04:11:18.377Z,935.39
2017-06-14T04:11:46.509Z,935.41
2017-06-14T04:12:14.705Z,935.44
2017-06-14T04:12:42.921Z,935.43
2017-06-14T04:13:11.165Z,935.46
2017-06-14T04:13:39.251Z,935.53
2017-06-14T04:14:07.527Z,935.52
2017-06-14T04:14:35.675Z,935.57
2017-06-14T04:15:03.643Z,935.63
2017-06-14T04:15:31.676Z,935.63
2017-06-14T04:15:59.796Z,935.62
2017-06-14T04:16:27.854Z,935.66
2017-06-14T04:16:55.937Z,935.66
2017-06-14T04:17:24.198Z,935.65
2017-06-14T04:17:52.370Z,935.65
2017-06-14T04:18:20.544Z,935.62
2017-06-14T04:18:48.779Z,935.58
2017-06-14T04:19:17.016Z,935.6
2017-06-14T04:19:45.295Z,935.59
2017-06-14T04:20:13.478Z,935.56
2017-06-14T04:20:41.648Z,935.57
2017-06-14T04:21:09.951Z,935.59
2017-06-14T04:21:38.184Z,935.59
2017-06-14T04:22:06.424Z,935.56
2017-06-14T04:22:34.403Z,935.59
2017-06-14T04:23:02.669Z,935.58
2017-06-14T04:23:30.894Z,935.61
2017-06-14T04:23:59.292Z,935.62
2017-06-14T04:24:27.333Z,935.62
2017-06-14T04:24:55.394Z,935.64
2017-06-14T04:25:23.774Z,935.66
2017-06-14T04:25:51.921Z,935.62
2017-06-14T04:26:20.144Z,935.64
2017-06-14T04:26:48.359Z,935.64
2017-06-14T04:27:16.449Z,935.63
2017-06-14T04:27:44.617Z,935.65
2017-06-14T04:28:12.850Z,935.64
2017-06-14T04:28:41.109Z,935.63
2017-06-14T04:29:09.395Z,935.61
2017-06-14T04:29:37.712Z,935.62
2017-06-14T04:30:05.914Z,935.61
2017-06-14T04:30:34.128Z,935.59
2017-06-14T04:31:02.262Z,935.59
2017-06-14T04:31:30.548Z,935.59
2017-06-14T04:31:58.628Z,935.57
2017-06-14T04:32:26.884Z,935.58
2017-06-14T04:32:54.974Z,935.56
2017-06-14T04:33:23.116Z,935.54
2017-06-14T04:33:51.378Z,935.54
2017-06-14T04:34:19.486Z,935.54
2017-06-14T04:34:47.729Z,935.57
2017-06-14T04:35:16.010Z,935.56
2017-06-14T04:35:44.320Z,935.56
2017-06-14T04:36:12.407Z,935.57
2017-06-14T04:36:40.556Z,935.56
2017-06-14T04:37:08.658Z,935.6
2017-06-14T04:37:36.911Z,935.59
2017-06-14T04:38:04.922Z,935.61
2017-06-14T04:38:33.042Z,935.64
2017-06-14T04:39:01.317Z,935.61
2017-06-14T04:39:29.576Z,935.61
2017-06-14T04:39:57.783Z,935.58
2017-06-14T04:40:25.947Z,935.6
2017-06-14T04:40:54.221Z,935.59
2017-06-14T04:41:22.247Z,935.57
2017-06-14T04:41:50.439Z,935.56
2017-06-14T04:42:18.670Z,935.58
2017-06-14T04:42:46.852Z,935.56
2017-06-14T04:43:14.990Z,935.58
2017-06-14T04:43:43.123Z,935.59
2017-06-14T04:44:11.311Z,935.64
2017-06-14T04:44:39.430Z,935.61
2017-06-14T04:45:07.674Z,935.59
2017-06-14T04:45:35.906Z,935.59
2017-06-14T04:46:04.168Z,935.55
2017-06-14T04:46:32.487Z,935.52
2017-06-14T04:47:00.564Z,935.47
2017-06-14T04:47:28.810Z,935.47
2017-06-14T04:47:57.036Z,935.44
2017-06-14T04:48:25.163Z,935.46
2017-06-14T04:48:53.439Z,935.43
2017-06-14T04:49:21.965Z,935.45
2017-06-14T04:49:50.150Z,935.43
2017-06-14T04:50:18.435Z,935.39
2017-06-14T04:50:46.697Z,935.42
2017-06-14T04:51:14.963Z,935.41
2017-06-14T04:51:43.093Z,935.44
2017-06-14T04:52:11.242Z,935.41
2017-06-14T04:52:39.409Z,935.4
2017-06-14T04:53:07.561Z,935.39
2017-06-14T04:53:35.821Z,935.38
2017-06-14T04:54:03.993Z,935.36
2017-06-14T04:54:32.411Z,935.34
2017-06-14T04:55:00.662Z,935.33
2017-06-14T04:55:28.908Z,935.33
2017-06-14T04:55:56.965Z,935.31
2017-06-14T04:56:25.221Z,935.33
2017-06-14T04:56:53.392Z,935.35
2017-06-14T04:57:21.628Z,935.36
2017-06-14T04:57:49.817Z,935.37
2017-06-14T04:58:18.064Z,935.36
2017-06-14T04:58:46.182Z,935.36
2017-06-14T04:59:14.298Z,935.36
2017-06-14T04:59:42.637Z,935.35
2017-06-14T05:00:10.706Z,935.34
2017-06-14T05:00:38.663Z,935.36
2017-06-14T05:01:06.931Z,935.34
2017-06-14T05:01:34.968Z,935.33
2017-06-14T05:02:03.076Z,935.33
2017-06-14T05:02:32.005Z,935.31
2017-06-14T05:03:00.286Z,935.32
2017-06-14T05:03:28.446Z,935.31
2017-06-14T05:03:56.645Z,935.28
2017-06-14T05:04:24.849Z,935.3
2017-06-14T05:04:53.403Z,935.26
2017-06-14T05:05:21.583Z,935.29
2017-06-14T05:05:49.685Z,935.26
2017-06-14T05:06:17.945Z,935.27
2017-06-14T05:06:46.125Z,935.21
2017-06-14T05:07:14.379Z,935.24
2017-06-14T05:07:42.642Z,935.24
2017-06-14T05:08:10.807Z,935.23
2017-06-14T05:08:38.883Z,935.24
2017-06-14T05:09:07.193Z,935.24
2017-06-14T05:09:35.638Z,935.24
2017-06-14T05:10:03.836Z,935.22
2017-06-14T05:10:31.983Z,935.21
2017-06-14T05:11:00.190Z,935.23
2017-06-14T05:11:28.346Z,935.22
2017-06-14T05:11:56.488Z,935.18
2017-06-14T05:12:24.785Z,935.22
2017-06-14T05:12:52.931Z,935.21
2017-06-14T05:13:21.161Z,935.23
2017-06-14T05:13:49.195Z,935.22
2017-06-14T05:14:17.225Z,935.2
2017-06-14T05:14:45.402Z,935.2
2017-06-14T05:15:13.677Z,935.17
2017-06-14T05:15:41.836Z,935.15
2017-06-14T05:16:10.112Z,935.19
2017-06-14T05:16:38.147Z,935.15
2017-06-14T05:17:06.342Z,935.15
2017-06-14T05:17:34.631Z,935.18
2017-06-14T05:18:02.949Z,935.18
2017-06-14T05:18:31.098Z,935.14
2017-06-14T05:18:59.212Z,935.18
2017-06-14T05:19:27.423Z,935.16
2017-06-14T05:19:55.754Z,935.13
2017-06-14T05:20:24.058Z,935.11
2017-06-14T05:20:52.228Z,935.1
2017-06-14T05:21:20.337Z,935.14
2017-06-14T05:21:48.655Z,935.13
2017-06-14T05:22:16.950Z,935.14
2017-06-14T05:22:45.194Z,935.18
2017-06-14T05:23:13.463Z,935.2
2017-06-14T05:23:41.874Z,935.2
2017-06-14T05:24:10.130Z,935.23
2017-06-14T05:24:38.502Z,935.27
2017-06-14T05:25:06.912Z,935.25
2017-06-14T05:25:35.019Z,935.23
2017-06-14T05:26:03.211Z,935.25
2017-06-14T05:26:31.314Z,935.21
2017-06-14T05:26:59.454Z,935.21
2017-06-14T05:27:27.621Z,935.2
2017-06-14T05:27:55.919Z,935.15
2017-06-14T05:28:24.117Z,935.11
2017-06-14T05:28:52.343Z,935.14
2017-06-14T05:29:20.487Z,935.11
2017-06-14T05:29:48.457Z,935.11
2017-06-14T05:30:16.722Z,935.1
2017-06-14T05:30:45.050Z,935.03
2017-06-14T05:31:13.284Z,935.02
2017-06-14T05:31:41.374Z,934.98
2017-06-14T05:32:09.630Z,935.01
2017-06-14T05:32:37.980Z,935.02
2017-06-14T05:33:06.054Z,935.06
2017-06-14T05:33:34.215Z,935.07
2017-06-14T05:34:02.500Z,935.09
2017-06-14T05:34:30.645Z,935.08
2017-06-14T05:34:58.733Z,935.13
2017-06-14T05:35:26.985Z,935.14
2017-06-14T05:35:55.232Z,935.19
2017-06-14T05:36:23.501Z,935.22
2017-06-14T05:36:51.808Z,935.21
2017-06-14T05:37:20.130Z,935.2
2017-06-14T05:37:48.394Z,935.19
2017-06-14T05:38:16.517Z,935.24
2017-06-14T05:38:44.712Z,935.2
2017-06-14T05:39:12.804Z,935.24
2017-06-14T05:39:41.124Z,935.2
2017-06-14T05:40:09.266Z,935.18
2017-06-14T05:40:37.530Z,935.23
2017-06-14T05:41:05.695Z,935.23
2017-06-14T05:41:33.931Z,935.23
2017-06-14T05:42:02.081Z,935.25
2017-06-14T05:42:30.294Z,935.24
2017-06-14T05:42:58.204Z,935.24
2017-06-14T05:43:26.646Z,935.23
2017-06-14T05:43:55.020Z,935.24
2017-06-14T05:44:23.288Z,935.26
2017-06-14T05:44:51.840Z,935.26
2017-06-14T05:45:20.123Z,935.22
2017-06-14T05:45:48.331Z,935.17
2017-06-14T05:46:16.573Z,935.11
2017-06-14T05:46:44.721Z,935.09
2017-06-14T05:47:12.905Z,935.07
2017-06-14T05:47:41.061Z,935.03
2017-06-14T05:48:09.108Z,935
2017-06-14T05:48:36.990Z,934.97
2017-06-14T05:49:05.377Z,934.95
2017-06-14T05:49:33.636Z,934.95
2017-06-14T05:50:01.743Z,934.9
2017-06-14T05:50:30.223Z,934.9
2017-06-14T05:50:58.513Z,934.92
2017-06-14T05:51:26.705Z,934.91
2017-06-14T05:51:54.860Z,934.93
2017-06-14T05:52:23.247Z,934.92
2017-06-14T05:52:51.611Z,934.89